Date,TemperatureHighF,TemperatureAvgF,TemperatureLowF,DewpointHighF,DewpointAvgF,DewpointLowF,HumidityHigh,HumidityAvg,HumidityLow,PressureMaxIn,PressureMinIn,WindSpeedMaxMPH,WindSpeedAvgMPH,GustSpeedMaxMPH,PrecipitationSumIn
2013-2-1,51.3,44.2,36.2,39.1,28.9,16.0,72,55,40,30.35,29.95,39,17,39,0.00
2013-2-2,47.2,38.4,32.7,42.7,25.0,16.0,89,59,43,30.38,30.00,20,5,20,0.00
2013-2-3,48.6,45.5,43.7,44.4,39.6,36.1,88,80,72,30.00,29.83,23,9,23,0.00
2013-2-4,47.7,41.9,38.6,39.5,30.2,23.5,77,63,47,30.12,29.94,27,8,27,0.00
2013-2-5,57.4,51.7,46.2,49.6,44.8,39.7,89,77,67,30.03,29.86,19,6,19,0.00
2013-2-6,56.0,50.8,48.9,48.6,46.0,42.1,92,84,60,30.24,29.94,17,4,17,0.00
2013-2-7,58.8,53.3,49.9,54.6,49.8,46.4,94,88,77,30.27,29.91,29,9,29,0.47
2013-2-8,63.3,54.1,48.6,62.4,51.6,39.9,98,91,71,29.91,29.41,35,15,37,3.27
2013-2-9,48.9,45.2,42.3,40.8,34.0,29.0,74,65,52,30.32,29.91,36,21,36,0.01
2013-2-10,49.8,45.2,41.8,47.3,37.8,28.2,91,76,55,30.47,30.30,17,7,17,0.00
2013-2-11,62.0,59.3,49.7,59.8,56.8,47.2,97,92,80,30.31,29.86,27,7,27,0.25
2013-2-12,59.5,55.1,53.1,58.2,50.0,41.9,96,84,56,30.02,29.87,20,4,20,0.03
2013-2-13,56.4,51.5,48.4,55.2,50.1,46.2,98,95,89,29.98,29.59,29,6,29,0.03
2013-2-14,52.5,46.0,43.5,49.4,41.8,39.2,92,85,79,30.07,29.73,25,8,25,0.04
2013-2-15,53.5,48.1,44.2,45.4,42.4,34.0,94,81,51,30.08,29.93,17,5,17,0.00
2013-2-16,49.2,45.6,38.2,46.6,42.3,35.8,95,88,81,29.93,29.63,36,12,36,0.17
2013-2-17,38.8,36.1,34.0,36.1,25.7,17.9,91,67,47,30.24,29.75,35,22,35,0.18
2013-2-18,45.9,37.9,32.8,35.9,22.9,15.9,70,55,35,30.43,30.24,29,8,29,0.00
2013-2-19,61.7,53.7,45.4,56.3,49.2,36.3,94,85,69,30.30,29.86,28,6,28,0.03
2013-2-20,50.0,48.0,45.4,47.3,42.6,31.3,91,82,61,30.01,29.90,22,10,22,0.03
2013-2-23,50.4,45.3,47.4,49.9,38.6,-99.9,100,92,97,29.91,-32.77,17,-57,17,0.08
2013-2-24,51.7,47.5,44.4,48.8,46.2,43.1,99,95,88,29.99,29.71,21,5,21,0.10
2013-2-25,46.8,42.6,41.0,46.0,36.8,33.8,97,80,73,30.17,29.98,31,12,31,0.01
2013-2-26,65.9,55.1,44.3,64.7,53.4,40.7,98,94,86,30.10,29.56,27,8,27,1.15
2013-2-27,59.8,53.3,50.3,58.7,49.4,44.8,98,87,74,29.76,29.58,27,7,27,1.16
2013-2-28,51.6,50.0,48.1,48.2,42.4,37.1,88,76,62,29.78,29.66,24,12,24,0.00